This is the latest recevied weather packets stored in our database for station/object OE-11213. If no packets are shown the sender has not sent any weather packets the latest 10 day(s).
| Time | Temp. | Humidity | Pressure | Rain* | Wind** | Luminosity | Snow |
|---|---|---|---|---|---|---|---|
| 1788329131 | 16.67° C | 96% | 1022.3 hPa | 0 mm | - | 44 W/m² | - |
| 1788328531 | 16.67° C | 98% | 1022.3 hPa | 0 mm | - | 36 W/m² | - |
| 1788327704 | 16.67° C | 99% | 1022.3 hPa | 0 mm | - | 29 W/m² | - |
| 1788327332 | 16.67° C | 100% | 1022.1 hPa | 0 mm | - | 22 W/m² | - |
| 1788326731 | 16.67° C | 99% | 1022 hPa | 0 mm | - | 15 W/m² | - |
| 1788325904 | 16.67° C | 98% | 1022.1 hPa | 0 mm | - | 7 W/m² | - |
| 1788324104 | 16.67° C | 99% | 1022 hPa | 0 mm | - | 0 W/m² | - |
| 1788323731 | 16.67° C | 99% | 1022 hPa | 0 mm | - | 0 W/m² | - |
| 1788322304 | 16.67° C | 99% | 1022 hPa | 0 mm | - | 0 W/m² | - |
| 1788321931 | 16.67° C | 99% | 1022 hPa | 0 mm | - | 0 W/m² | - |
| 1788300705 | 17.78° C | 96% | 1021.9 hPa | 5.33 mm | - | 0 W/m² | - |
| 1788298531 | 19.44° C | 81% | 1020.4 hPa | 0 mm | - | 0 W/m² | - |
| 1788294931 | 19.44° C | 76% | 1019.7 hPa | 0 mm | - | 0 W/m² | - |
| 1788293505 | 19.44° C | 75% | 1019.7 hPa | 0 mm | - | 0 W/m² | - |
| 1788293131 | 20.56° C | 70% | 1019.6 hPa | 0 mm | - | 0 W/m² | - |
| 1788290731 | 20.56° C | 68% | 1019.1 hPa | 0 mm | - | 0 W/m² | - |
| 1788289531 | 21.11° C | 67% | 1018.7 hPa | 0 mm | - | 0 W/m² | - |
| 1788287731 | 21.67° C | 63% | 1018.2 hPa | 0 mm | - | 0 W/m² | - |
| 1788287131 | 22.22° C | 63% | 1018.2 hPa | 0 mm | - | 0 W/m² | - |
| 1788286304 | 22.22° C | 61% | 1018 hPa | 0 mm | - | 0 W/m² | - |
| 1788284131 | 24.44° C | 49% | 1017 hPa | 0 mm | - | 15 W/m² | - |
| 1788283531 | 24.44° C | 48% | 1016.9 hPa | 0 mm | - | 29 W/m² | - |
| 1788282331 | 25.56° C | 45% | 1016.8 hPa | 0 mm | - | 80 W/m² | - |
| 1788281731 | 25.56° C | 45% | 1016.9 hPa | 0 mm | - | 109 W/m² | - |
| 1788280531 | 25.56° C | 45% | 1017 hPa | 0 mm | - | 160 W/m² | - |
* Rain latest hour (hover to see other rain measurements)
** Current wind speed in m/s (hover to see current wind gust speed)